createdAt,value
2024-05-09T00:00:10.459Z,14.18
2024-05-09T00:01:08.985Z,14.17
2024-05-09T00:02:08.913Z,14.16
2024-05-09T00:03:09.007Z,14.15
2024-05-09T00:04:08.971Z,14.15
2024-05-09T00:05:08.109Z,14.14
2024-05-09T00:06:08.793Z,14.11
2024-05-09T00:07:08.905Z,14.09
2024-05-09T00:08:08.894Z,14.09
2024-05-09T00:09:07.928Z,14.08
2024-05-09T00:10:14.701Z,14.07
2024-05-09T00:11:10.457Z,14.07
2024-05-09T00:12:08.849Z,14.06
2024-05-09T00:13:09.239Z,14.05
2024-05-09T00:14:07.931Z,14.03
2024-05-09T00:15:07.855Z,14.02
2024-05-09T00:16:08.805Z,14.03
2024-05-09T00:17:07.873Z,14.01
2024-05-09T00:18:09.003Z,14.02
2024-05-09T00:19:08.833Z,14.02
2024-05-09T00:20:17.418Z,14.00
2024-05-09T00:21:09.848Z,13.99
2024-05-09T00:22:08.740Z,13.99
2024-05-09T00:23:09.351Z,13.98
2024-05-09T00:24:08.550Z,13.96
2024-05-09T00:25:08.729Z,13.95
2024-05-09T00:26:08.680Z,13.94
2024-05-09T00:27:08.958Z,13.92
2024-05-09T00:28:08.679Z,13.90
2024-05-09T00:29:08.626Z,13.90
2024-05-09T00:30:11.695Z,13.88
2024-05-09T00:31:09.419Z,13.87
2024-05-09T00:32:07.773Z,13.85
2024-05-09T00:33:09.170Z,13.84
2024-05-09T00:34:08.915Z,13.84
2024-05-09T00:35:08.632Z,13.81
2024-05-09T00:36:08.423Z,13.80
2024-05-09T00:37:08.578Z,13.78
2024-05-09T00:38:07.695Z,13.78
2024-05-09T00:39:08.393Z,13.76
2024-05-09T00:40:14.879Z,13.75
2024-05-09T00:41:10.628Z,13.74
2024-05-09T00:42:09.494Z,13.73
2024-05-09T00:43:08.520Z,13.72
2024-05-09T00:44:08.437Z,13.70
2024-05-09T00:45:07.517Z,13.69
2024-05-09T00:46:08.484Z,13.69
2024-05-09T00:47:08.517Z,13.68
2024-05-09T00:48:09.661Z,13.65
2024-05-09T00:49:08.511Z,13.65
2024-05-09T00:50:12.650Z,13.63
2024-05-09T00:51:10.526Z,13.62
2024-05-09T00:52:07.473Z,13.62
2024-05-09T00:53:08.433Z,13.62
2024-05-09T00:54:08.228Z,13.60
2024-05-09T00:55:07.414Z,13.59
2024-05-09T00:56:07.484Z,13.58
2024-05-09T00:57:08.217Z,13.57
2024-05-09T00:58:08.370Z,13.55
2024-05-09T00:59:08.277Z,13.54
2024-05-09T01:00:18.370Z,13.53
2024-05-09T01:01:09.165Z,13.52
2024-05-09T01:02:07.412Z,13.51
2024-05-09T01:03:09.015Z,13.50
2024-05-09T01:04:09.073Z,13.48
2024-05-09T01:05:08.303Z,13.47
2024-05-09T01:06:08.108Z,13.46
2024-05-09T01:07:07.289Z,13.45
2024-05-09T01:08:07.494Z,13.43
2024-05-09T01:09:08.070Z,13.41
2024-05-09T01:10:14.118Z,13.40
2024-05-09T01:11:10.324Z,13.39
2024-05-09T01:12:08.160Z,13.38
2024-05-09T01:13:07.655Z,13.36
2024-05-09T01:14:08.140Z,13.34
2024-05-09T01:15:08.010Z,13.34
2024-05-09T01:16:08.173Z,13.33
2024-05-09T01:17:08.132Z,13.32
2024-05-09T01:18:08.234Z,13.31
2024-05-09T01:19:08.818Z,13.31
2024-05-09T01:20:10.904Z,13.29
2024-05-09T01:21:08.284Z,13.28
2024-05-09T01:22:08.106Z,13.27
2024-05-09T01:23:08.108Z,13.27
2024-05-09T01:24:07.114Z,13.25
2024-05-09T01:25:08.070Z,13.24
2024-05-09T01:26:08.050Z,13.24
2024-05-09T01:27:07.889Z,13.23
2024-05-09T01:28:08.039Z,13.22
2024-05-09T01:29:07.977Z,13.21
2024-05-09T01:30:09.469Z,13.20
2024-05-09T01:31:09.985Z,13.18
2024-05-09T01:32:08.124Z,13.18
2024-05-09T01:33:09.829Z,13.16
2024-05-09T01:34:08.469Z,13.15
2024-05-09T01:35:07.913Z,13.14
2024-05-09T01:36:07.795Z,13.14
2024-05-09T01:37:07.947Z,13.12
2024-05-09T01:38:07.974Z,13.11
2024-05-09T01:39:07.766Z,13.11
2024-05-09T01:40:12.275Z,13.10
2024-05-09T01:41:09.916Z,13.09
2024-05-09T01:42:07.726Z,13.08
2024-05-09T01:43:09.758Z,13.08
2024-05-09T01:44:07.800Z,13.07
2024-05-09T01:45:07.692Z,13.06
2024-05-09T01:46:08.328Z,13.06
2024-05-09T01:47:07.819Z,13.04
2024-05-09T01:48:07.810Z,13.03
2024-05-09T01:49:07.638Z,13.02
2024-05-09T01:50:10.714Z,13.01
2024-05-09T01:51:07.739Z,13.01
2024-05-09T01:52:08.299Z,12.99
2024-05-09T01:53:07.889Z,12.98
2024-05-09T01:54:07.588Z,12.97
2024-05-09T01:55:07.487Z,12.95
2024-05-09T01:56:07.689Z,12.95
2024-05-09T01:57:07.561Z,12.92
2024-05-09T01:58:07.762Z,12.91
2024-05-09T01:59:07.642Z,12.89
2024-05-09T02:00:08.050Z,12.89
2024-05-09T02:01:07.458Z,12.87
2024-05-09T02:02:07.742Z,12.86
2024-05-09T02:03:07.798Z,12.85
2024-05-09T02:04:07.977Z,12.84
2024-05-09T02:05:07.789Z,12.82
2024-05-09T02:06:07.528Z,12.81
2024-05-09T02:07:07.385Z,12.81
2024-05-09T02:08:07.635Z,12.79
2024-05-09T02:09:07.433Z,12.78
2024-05-09T02:10:13.778Z,12.76
2024-05-09T02:11:08.574Z,12.76
2024-05-09T02:12:07.537Z,12.75
2024-05-09T02:13:07.297Z,12.74
2024-05-09T02:14:07.544Z,12.73
2024-05-09T02:15:07.371Z,12.72
2024-05-09T02:16:07.266Z,12.71
2024-05-09T02:17:07.529Z,12.69
2024-05-09T02:18:07.646Z,12.68
2024-05-09T02:19:08.050Z,12.67
2024-05-09T02:20:10.770Z,12.66
2024-05-09T02:21:09.512Z,12.65
2024-05-09T02:22:07.211Z,12.65
2024-05-09T02:23:07.550Z,12.64
2024-05-09T02:24:07.270Z,12.60
2024-05-09T02:25:07.908Z,12.59
2024-05-09T02:26:06.460Z,12.58
2024-05-09T02:27:07.236Z,12.57
2024-05-09T02:28:07.142Z,12.55
2024-05-09T02:29:07.318Z,12.54
2024-05-09T02:30:15.193Z,12.54
2024-05-09T02:31:09.314Z,12.53
2024-05-09T02:32:07.323Z,12.53
2024-05-09T02:33:07.912Z,12.52
2024-05-09T02:34:07.143Z,12.52
2024-05-09T02:35:07.303Z,12.51
2024-05-09T02:36:07.148Z,12.50
2024-05-09T02:37:07.051Z,12.50
2024-05-09T02:38:07.278Z,12.48
2024-05-09T02:39:07.129Z,12.47
2024-05-09T02:40:09.157Z,12.46
2024-05-09T02:41:07.768Z,12.45
2024-05-09T02:42:07.079Z,12.44
2024-05-09T02:43:08.282Z,12.43
2024-05-09T02:44:07.188Z,12.43
2024-05-09T02:45:07.046Z,12.41
2024-05-09T02:46:06.964Z,12.40
2024-05-09T02:47:07.388Z,12.39
2024-05-09T02:48:07.281Z,12.38
2024-05-09T02:49:06.979Z,12.38
2024-05-09T02:50:08.253Z,12.36
2024-05-09T02:51:07.120Z,12.35
2024-05-09T02:52:06.885Z,12.34
2024-05-09T02:53:07.228Z,12.34
2024-05-09T02:54:06.959Z,12.33
2024-05-09T02:55:06.850Z,12.32
2024-05-09T02:56:07.114Z,12.30
2024-05-09T02:57:06.960Z,12.29
2024-05-09T02:58:06.828Z,12.27
2024-05-09T02:59:07.022Z,12.25
2024-05-09T03:00:12.097Z,12.24
2024-05-09T03:01:07.842Z,12.23
2024-05-09T03:02:07.049Z,12.22
2024-05-09T03:03:07.207Z,12.20
2024-05-09T03:04:07.020Z,12.17
2024-05-09T03:05:06.972Z,12.16
2024-05-09T03:06:06.824Z,12.15
2024-05-09T03:07:06.790Z,12.15
2024-05-09T03:08:06.989Z,12.14
2024-05-09T03:09:06.796Z,12.12
2024-05-09T03:10:12.229Z,12.10
2024-05-09T03:11:09.018Z,12.10
2024-05-09T03:12:06.878Z,12.08
2024-05-09T03:13:06.672Z,12.08
2024-05-09T03:14:06.928Z,12.07
2024-05-09T03:15:06.733Z,12.05
2024-05-09T03:16:06.638Z,12.04
2024-05-09T03:17:06.977Z,12.03
2024-05-09T03:18:07.369Z,12.03
2024-05-09T03:19:06.686Z,12.02
2024-05-09T03:20:11.669Z,12.02
2024-05-09T03:21:07.916Z,12.01
2024-05-09T03:22:06.583Z,12.00
2024-05-09T03:23:06.827Z,11.99
2024-05-09T03:24:06.643Z,11.98
2024-05-09T03:25:06.545Z,11.98
2024-05-09T03:26:06.720Z,11.97
2024-05-09T03:27:06.635Z,11.96
2024-05-09T03:28:06.548Z,11.96
2024-05-09T03:29:06.718Z,11.95
2024-05-09T03:30:07.664Z,11.95
2024-05-09T03:31:06.700Z,11.95
2024-05-09T03:32:06.691Z,11.95
2024-05-09T03:33:06.727Z,11.94
2024-05-09T03:34:06.618Z,11.94
2024-05-09T03:35:06.647Z,11.93
2024-05-09T03:36:09.793Z,11.92
2024-05-09T03:37:06.490Z,11.92
2024-05-09T03:38:06.633Z,11.91
2024-05-09T03:39:06.474Z,11.91
2024-05-09T03:40:09.350Z,11.91
2024-05-09T03:41:07.572Z,11.91
2024-05-09T03:42:06.446Z,11.91
2024-05-09T03:43:06.356Z,11.91
2024-05-09T03:44:06.578Z,11.92
2024-05-09T03:45:06.457Z,11.92
2024-05-09T03:46:06.318Z,11.91
2024-05-09T03:47:06.579Z,11.91
2024-05-09T03:48:07.717Z,11.92
2024-05-09T03:49:06.318Z,11.92
2024-05-09T03:50:14.961Z,11.93
2024-05-09T03:51:08.716Z,11.94
2024-05-09T03:52:06.248Z,11.94
2024-05-09T03:53:06.560Z,11.95
2024-05-09T03:54:06.320Z,11.96
2024-05-09T03:55:06.213Z,11.97
2024-05-09T03:56:06.422Z,11.97
2024-05-09T03:57:06.292Z,11.99
2024-05-09T03:58:06.199Z,12.00
2024-05-09T03:59:06.399Z,12.01
2024-05-09T04:00:12.242Z,12.02
2024-05-09T04:01:08.416Z,12.04
2024-05-09T04:02:06.460Z,12.06
2024-05-09T04:03:08.556Z,12.08
2024-05-09T04:04:06.207Z,12.09
2024-05-09T04:05:06.307Z,12.13
2024-05-09T04:06:06.185Z,12.14
2024-05-09T04:07:06.191Z,12.15
2024-05-09T04:08:06.334Z,12.18
2024-05-09T04:09:06.155Z,12.20
2024-05-09T04:10:08.915Z,12.23
2024-05-09T04:11:06.345Z,12.25
2024-05-09T04:12:06.208Z,12.28
2024-05-09T04:13:06.049Z,12.32
2024-05-09T04:14:06.356Z,12.36
2024-05-09T04:15:08.177Z,12.39
2024-05-09T04:16:05.990Z,12.44
2024-05-09T04:17:06.226Z,12.49
2024-05-09T04:18:06.331Z,12.57
2024-05-09T04:19:06.061Z,12.61
2024-05-09T04:20:08.368Z,12.66
2024-05-09T04:21:06.157Z,12.72
2024-05-09T04:22:05.940Z,12.79
2024-05-09T04:23:06.543Z,12.87
2024-05-09T04:24:05.992Z,12.97
2024-05-09T04:25:05.910Z,13.07
2024-05-09T04:26:06.080Z,13.21
2024-05-09T04:27:05.150Z,13.35
2024-05-09T04:28:05.985Z,13.52
2024-05-09T04:29:06.062Z,13.70
2024-05-09T04:30:09.934Z,13.89
2024-05-09T04:31:07.009Z,14.09
2024-05-09T04:32:06.096Z,14.29
2024-05-09T04:33:07.094Z,14.50
2024-05-09T04:34:07.128Z,14.70
2024-05-09T04:35:05.973Z,14.88
2024-05-09T04:36:05.864Z,15.05
2024-05-09T04:37:05.768Z,15.23
2024-05-09T04:38:06.297Z,15.39
2024-05-09T04:39:05.828Z,15.53
2024-05-09T04:40:08.948Z,15.69
2024-05-09T04:41:06.919Z,15.90
2024-05-09T04:42:05.796Z,16.12
2024-05-09T04:43:06.496Z,16.34
2024-05-09T04:44:05.933Z,16.50
2024-05-09T04:45:05.768Z,16.67
2024-05-09T04:46:05.673Z,16.86
2024-05-09T04:47:05.921Z,17.10
2024-05-09T04:48:06.000Z,17.35
2024-05-09T04:49:05.719Z,17.62
2024-05-09T04:50:05.858Z,17.91
2024-05-09T04:51:05.839Z,18.18
2024-05-09T04:52:05.608Z,18.47
2024-05-09T04:53:06.431Z,18.76
2024-05-09T04:54:08.428Z,19.05
2024-05-09T04:55:05.582Z,19.33
2024-05-09T04:56:05.822Z,19.55
2024-05-09T04:57:05.641Z,19.70
2024-05-09T04:58:05.762Z,19.86
2024-05-09T04:59:05.717Z,20.11
2024-05-09T05:00:09.439Z,20.39
2024-05-09T05:01:07.693Z,20.68
2024-05-09T05:02:05.713Z,20.98
2024-05-09T05:03:06.662Z,21.21
2024-05-09T05:04:05.578Z,21.41
2024-05-09T05:05:05.703Z,21.65
2024-05-09T05:06:05.656Z,21.89
2024-05-09T05:07:05.463Z,22.02
2024-05-09T05:08:05.771Z,22.05
2024-05-09T05:09:05.515Z,22.14
2024-05-09T05:10:05.963Z,22.44
2024-05-09T05:11:04.801Z,22.77
2024-05-09T05:12:05.672Z,23.09
2024-05-09T05:13:05.403Z,23.42
2024-05-09T05:14:04.794Z,23.75
2024-05-09T05:15:05.454Z,24.06
2024-05-09T05:16:05.353Z,24.34
2024-05-09T05:17:05.561Z,24.60
2024-05-09T05:18:05.565Z,24.83
2024-05-09T05:19:09.030Z,25.09
2024-05-09T05:20:08.749Z,25.34
2024-05-09T05:21:05.435Z,25.60
2024-05-09T05:22:04.547Z,25.89
2024-05-09T05:23:05.482Z,26.14
2024-05-09T05:24:05.350Z,26.36
2024-05-09T05:25:05.255Z,26.54
2024-05-09T05:26:05.452Z,26.71
2024-05-09T05:27:05.320Z,26.89
2024-05-09T05:28:04.447Z,27.04
2024-05-09T05:29:05.441Z,27.19
2024-05-09T05:30:07.511Z,27.35
2024-05-09T05:31:06.367Z,27.50
2024-05-09T05:32:05.513Z,27.69
2024-05-09T05:33:05.403Z,27.94
2024-05-09T05:34:05.273Z,28.20
2024-05-09T05:35:05.419Z,28.47
2024-05-09T05:36:05.224Z,28.71
2024-05-09T05:37:05.131Z,28.95
2024-05-09T05:38:05.338Z,29.17
2024-05-09T05:39:05.209Z,29.45
2024-05-09T05:40:05.766Z,29.73
2024-05-09T05:41:05.281Z,29.97
2024-05-09T05:42:05.162Z,30.22
2024-05-09T05:43:05.070Z,30.47
2024-05-09T05:44:05.280Z,30.71
2024-05-09T05:45:06.676Z,30.94
2024-05-09T05:46:05.699Z,31.16
2024-05-09T05:47:05.237Z,31.38
2024-05-09T05:48:06.336Z,31.58
2024-05-09T05:49:05.146Z,31.80
2024-05-09T05:50:09.399Z,32.02
2024-05-09T05:51:06.146Z,32.20
2024-05-09T05:52:04.967Z,32.39
2024-05-09T05:53:05.178Z,32.56
2024-05-09T05:54:05.028Z,32.75
2024-05-09T05:55:04.940Z,32.94
2024-05-09T05:56:05.173Z,33.13
2024-05-09T05:57:04.138Z,33.33
2024-05-09T05:58:04.871Z,33.52
2024-05-09T05:59:05.092Z,33.72
2024-05-09T06:00:09.410Z,33.91
2024-05-09T06:01:06.101Z,34.08
2024-05-09T06:02:05.173Z,34.23
2024-05-09T06:03:04.276Z,34.40
2024-05-09T06:04:05.048Z,34.56
2024-05-09T06:05:05.139Z,34.73
2024-05-09T06:06:05.083Z,34.92
2024-05-09T06:07:04.807Z,35.10
2024-05-09T06:08:04.220Z,35.29
2024-05-09T06:09:04.892Z,35.46
2024-05-09T06:10:09.288Z,35.66
2024-05-09T06:11:06.106Z,35.82
2024-05-09T06:12:04.191Z,35.94
2024-05-09T06:13:04.739Z,36.01
2024-05-09T06:14:04.008Z,36.12
2024-05-09T06:15:04.841Z,36.22
2024-05-09T06:16:04.729Z,36.28
2024-05-09T06:17:04.961Z,36.28
2024-05-09T06:18:05.032Z,36.23
2024-05-09T06:19:04.920Z,36.19
2024-05-09T06:20:07.384Z,36.16
2024-05-09T06:21:05.874Z,36.20
2024-05-09T06:22:04.651Z,36.28
2024-05-09T06:23:05.124Z,36.31
2024-05-09T06:24:06.678Z,36.37
2024-05-09T06:25:04.628Z,36.48
2024-05-09T06:26:04.862Z,36.65
2024-05-09T06:27:04.680Z,36.75
2024-05-09T06:28:04.856Z,36.88
2024-05-09T06:29:04.778Z,37.03
2024-05-09T06:30:05.164Z,37.18
2024-05-09T06:31:04.552Z,37.27
2024-05-09T06:32:04.824Z,37.31
2024-05-09T06:33:05.054Z,37.35
2024-05-09T06:34:04.985Z,37.40
2024-05-09T06:35:04.768Z,37.49
2024-05-09T06:36:04.589Z,37.63
2024-05-09T06:37:04.515Z,37.82
2024-05-09T06:38:04.863Z,38.03
2024-05-09T06:39:04.554Z,38.15
2024-05-09T06:40:07.265Z,38.25
2024-05-09T06:41:03.708Z,38.43
2024-05-09T06:42:04.524Z,38.62
2024-05-09T06:43:04.432Z,38.78
2024-05-09T06:44:04.598Z,38.92
2024-05-09T06:45:04.520Z,39.01
2024-05-09T06:46:04.388Z,39.01
2024-05-09T06:47:04.631Z,39.08
2024-05-09T06:48:04.785Z,39.20
2024-05-09T06:49:04.759Z,39.34
2024-05-09T06:50:08.207Z,39.49
2024-05-09T06:51:05.470Z,39.68
2024-05-09T06:52:04.331Z,39.87
2024-05-09T06:53:04.501Z,40.10
2024-05-09T06:54:04.394Z,40.28
2024-05-09T06:55:04.299Z,40.43
2024-05-09T06:56:04.468Z,40.57
2024-05-09T06:57:04.363Z,40.71
2024-05-09T06:58:04.289Z,40.83
2024-05-09T06:59:04.438Z,40.92
2024-05-09T07:00:05.110Z,41.04
2024-05-09T07:01:04.253Z,41.17
2024-05-09T07:02:04.422Z,41.35
2024-05-09T07:03:05.933Z,41.54
2024-05-09T07:04:04.479Z,41.74
2024-05-09T07:05:04.617Z,41.91
2024-05-09T07:06:04.442Z,42.06
2024-05-09T07:07:04.173Z,42.17
2024-05-09T07:08:04.440Z,42.33
2024-05-09T07:09:04.248Z,42.50
2024-05-09T07:10:06.298Z,42.65
2024-05-09T07:11:04.569Z,42.77
2024-05-09T07:12:04.325Z,42.89
2024-05-09T07:13:04.136Z,43.01
2024-05-09T07:14:04.287Z,43.06
2024-05-09T07:15:04.165Z,43.14
2024-05-09T07:16:04.087Z,43.25
2024-05-09T07:17:03.424Z,43.40
2024-05-09T07:18:04.299Z,43.50
2024-05-09T07:19:04.400Z,43.58
2024-05-09T07:20:05.527Z,43.60
2024-05-09T07:21:04.168Z,43.57
2024-05-09T07:22:04.009Z,43.54
2024-05-09T07:23:04.301Z,43.55
2024-05-09T07:24:04.086Z,43.51
2024-05-09T07:25:03.977Z,43.47
2024-05-09T07:26:04.214Z,43.43
2024-05-09T07:27:04.040Z,43.45
2024-05-09T07:28:03.955Z,43.53
2024-05-09T07:29:04.204Z,43.66
2024-05-09T07:30:05.592Z,43.67
2024-05-09T07:31:03.916Z,43.65
2024-05-09T07:32:04.115Z,43.69
2024-05-09T07:33:04.287Z,43.70
2024-05-09T07:34:04.023Z,43.59
2024-05-09T07:35:03.240Z,43.45
2024-05-09T07:36:03.947Z,43.42
2024-05-09T07:37:03.869Z,43.22
2024-05-09T07:38:04.052Z,42.92
2024-05-09T07:39:03.917Z,42.73
2024-05-09T07:40:05.802Z,42.50
2024-05-09T07:41:04.057Z,42.10
2024-05-09T07:42:03.889Z,42.06
2024-05-09T07:43:03.801Z,42.17
2024-05-09T07:44:04.056Z,42.33
2024-05-09T07:45:20.896Z,42.47
2024-05-09T07:47:04.524Z,42.54
2024-05-09T07:48:14.155Z,42.66
2024-05-09T07:50:53.279Z,42.85
2024-05-09T07:51:54.807Z,42.88
2024-05-09T07:53:27.113Z,42.89
2024-05-09T07:53:36.355Z,42.90
2024-05-09T07:54:06.461Z,42.97
2024-05-09T07:55:04.914Z,43.10
2024-05-09T07:56:04.409Z,43.29
2024-05-09T07:57:03.830Z,43.48
2024-05-09T07:58:03.721Z,43.63
2024-05-09T07:59:03.790Z,43.58
2024-05-09T08:00:04.514Z,43.48
2024-05-09T08:01:03.819Z,43.41
2024-05-09T08:02:03.932Z,43.35
2024-05-09T08:03:03.693Z,43.26
2024-05-09T08:04:03.687Z,43.16
2024-05-09T08:05:03.807Z,43.09
2024-05-09T08:06:03.635Z,42.90
2024-05-09T08:07:03.554Z,42.74
2024-05-09T08:08:03.696Z,42.57
2024-05-09T08:09:08.052Z,42.37
2024-05-09T08:10:08.033Z,42.23
2024-05-09T08:11:04.192Z,42.13
2024-05-09T08:12:03.570Z,42.11
2024-05-09T08:13:03.489Z,42.04
2024-05-09T08:14:03.626Z,41.96
2024-05-09T08:15:03.545Z,41.86
2024-05-09T08:16:03.464Z,41.67
2024-05-09T08:17:03.627Z,41.51
2024-05-09T08:18:03.596Z,41.08
2024-05-09T08:19:03.606Z,41.08
2024-05-09T08:20:05.592Z,41.20
2024-05-09T08:21:03.465Z,41.29
2024-05-09T08:22:02.644Z,41.33
2024-05-09T08:23:03.540Z,41.22
2024-05-09T08:24:03.448Z,41.05
2024-05-09T08:25:03.377Z,40.85
2024-05-09T08:26:03.496Z,40.74
2024-05-09T08:27:03.417Z,40.75
2024-05-09T08:28:03.334Z,40.74
2024-05-09T08:29:03.477Z,40.76
2024-05-09T08:30:03.960Z,40.79
2024-05-09T08:31:06.133Z,40.74
2024-05-09T08:32:03.510Z,40.54
2024-05-09T08:33:03.382Z,40.20
2024-05-09T08:34:03.406Z,39.74
2024-05-09T08:35:03.439Z,39.36
2024-05-09T08:36:03.312Z,39.10
2024-05-09T08:37:10.187Z,38.76
2024-05-09T08:38:05.560Z,38.51
2024-05-09T08:39:03.271Z,38.40
2024-05-09T08:40:04.044Z,38.37
2024-05-09T08:41:03.334Z,38.37
2024-05-09T08:42:03.240Z,38.42
2024-05-09T08:43:03.392Z,38.37
2024-05-09T08:44:03.306Z,38.22
2024-05-09T08:45:03.222Z,38.02
2024-05-09T08:46:03.173Z,37.84
2024-05-09T08:47:03.325Z,37.73
2024-05-09T08:48:03.262Z,37.60
2024-05-09T08:49:03.269Z,37.40
2024-05-09T08:51:03.152Z,37.08
2024-05-09T08:52:03.115Z,36.90
2024-05-09T08:53:03.212Z,36.78
2024-05-09T08:54:03.112Z,36.74
2024-05-09T08:55:03.131Z,36.70
2024-05-09T08:56:03.179Z,36.66
2024-05-09T08:57:03.086Z,36.62
2024-05-09T08:58:03.012Z,36.54
2024-05-09T08:59:03.152Z,36.46
2024-05-09T09:00:04.878Z,36.42
2024-05-09T09:01:03.039Z,36.41
2024-05-09T09:02:03.182Z,36.33
2024-05-09T09:03:03.068Z,36.31
2024-05-09T09:04:03.023Z,36.31
2024-05-09T09:05:03.237Z,36.38
2024-05-09T09:06:03.017Z,36.50
2024-05-09T09:07:03.708Z,36.50
2024-05-09T09:08:03.049Z,36.44
2024-05-09T09:09:02.970Z,36.44
2024-05-09T09:10:03.236Z,36.51
2024-05-09T09:11:03.039Z,36.64
2024-05-09T09:12:03.008Z,36.78
2024-05-09T09:13:02.888Z,36.92
2024-05-09T09:14:02.984Z,36.98
2024-05-09T09:15:02.887Z,37.03
2024-05-09T09:16:03.276Z,37.10
2024-05-09T09:17:02.959Z,37.13
2024-05-09T09:18:02.945Z,37.10
2024-05-09T09:19:02.905Z,37.20
2024-05-09T09:20:03.020Z,36.98
2024-05-09T09:21:02.928Z,37.02
2024-05-09T09:22:02.834Z,37.05
2024-05-09T09:23:02.914Z,36.95
2024-05-09T09:24:02.800Z,36.69
2024-05-09T09:25:02.740Z,36.79
2024-05-09T09:26:02.861Z,36.97
2024-05-09T09:27:02.775Z,37.11
2024-05-09T09:28:02.674Z,37.13
2024-05-09T09:29:02.863Z,37.22
2024-05-09T09:30:03.520Z,37.31
2024-05-09T09:31:02.646Z,36.96
2024-05-09T09:32:02.801Z,36.53
2024-05-09T09:33:02.835Z,36.19
2024-05-09T09:34:02.883Z,36.15
2024-05-09T09:35:02.829Z,36.23
2024-05-09T09:36:02.677Z,36.45
2024-05-09T09:37:02.607Z,36.69
2024-05-09T09:38:03.213Z,36.92
2024-05-09T09:39:02.639Z,37.10
2024-05-09T09:40:02.615Z,37.28
2024-05-09T09:41:02.875Z,37.47
2024-05-09T09:42:02.598Z,37.69
2024-05-09T09:43:02.609Z,37.92
2024-05-09T09:44:02.661Z,38.13
2024-05-09T09:45:05.332Z,38.33
2024-05-09T09:46:02.583Z,38.50
2024-05-09T09:47:02.671Z,38.67
2024-05-09T09:48:02.663Z,38.84
2024-05-09T09:49:02.746Z,38.99
2024-05-09T09:50:03.116Z,39.12
2024-05-09T09:51:02.502Z,39.25
2024-05-09T09:52:02.481Z,39.36
2024-05-09T09:53:01.646Z,39.50
2024-05-09T09:54:02.519Z,39.66
2024-05-09T09:55:02.458Z,39.83
2024-05-09T09:56:01.643Z,39.96
2024-05-09T09:57:02.446Z,39.60
2024-05-09T09:58:02.378Z,39.22
2024-05-09T09:59:02.526Z,39.20
2024-05-09T10:00:05.643Z,39.28
2024-05-09T10:01:02.473Z,39.40
2024-05-09T10:02:02.742Z,39.59
2024-05-09T10:03:02.532Z,39.85
2024-05-09T10:04:02.429Z,40.10
2024-05-09T10:05:02.604Z,40.29
2024-05-09T10:06:02.423Z,40.48
2024-05-09T10:07:02.282Z,40.73
2024-05-09T10:08:02.453Z,41.05
2024-05-09T10:09:02.331Z,41.38
2024-05-09T10:10:02.588Z,41.19
2024-05-09T10:11:02.528Z,40.52
2024-05-09T10:12:02.368Z,39.92
2024-05-09T10:13:02.312Z,39.69
2024-05-09T10:14:02.372Z,40.31
2024-05-09T10:15:02.259Z,40.89
2024-05-09T10:16:02.218Z,41.05
2024-05-09T10:17:02.332Z,41.41
2024-05-09T10:18:02.465Z,40.52
2024-05-09T10:19:02.273Z,40.27
2024-05-09T10:20:02.537Z,41.16
2024-05-09T10:21:02.183Z,41.57
2024-05-09T10:22:02.153Z,42.32
2024-05-09T10:23:02.246Z,43.00
2024-05-09T10:24:02.181Z,43.64
2024-05-09T10:25:04.726Z,44.24
2024-05-09T10:26:02.222Z,43.42
2024-05-09T10:27:02.122Z,41.92
2024-05-09T10:28:02.043Z,40.74
2024-05-09T10:29:02.185Z,41.32
2024-05-09T10:30:02.860Z,42.40
2024-05-09T10:31:02.066Z,43.25
2024-05-09T10:32:02.158Z,43.86
2024-05-09T10:33:02.185Z,44.16
2024-05-09T10:34:02.171Z,44.26
2024-05-09T10:37:25.571Z,44.04
2024-05-09T10:38:24.354Z,44.01
2024-05-09T10:39:24.264Z,43.65
2024-05-09T10:40:29.122Z,43.00
2024-05-09T10:41:25.346Z,41.98
2024-05-09T10:42:24.235Z,40.66
2024-05-09T10:43:23.409Z,39.31
2024-05-09T10:44:23.360Z,38.02
2024-05-09T10:45:24.195Z,36.92
2024-05-09T10:46:23.484Z,36.06
2024-05-09T10:47:24.492Z,35.46
2024-05-09T10:48:24.410Z,35.04
2024-05-09T10:49:23.400Z,34.63
2024-05-09T10:50:28.677Z,34.34
2024-05-09T10:51:25.157Z,34.13
2024-05-09T10:52:23.324Z,33.91
2024-05-09T10:53:24.189Z,33.71
2024-05-09T10:54:24.117Z,33.52
2024-05-09T10:55:24.311Z,33.40
2024-05-09T10:56:24.160Z,33.17
2024-05-09T10:57:23.228Z,32.87
2024-05-09T10:58:23.287Z,32.61
2024-05-09T10:59:24.129Z,32.38
2024-05-09T11:00:30.552Z,32.12
2024-05-09T11:01:24.280Z,31.81
2024-05-09T11:02:23.405Z,31.43
2024-05-09T11:03:24.089Z,31.05
2024-05-09T11:04:23.959Z,30.73
2024-05-09T11:05:24.165Z,30.50
2024-05-09T11:06:23.124Z,30.26
2024-05-09T11:07:24.158Z,30.06
2024-05-09T11:08:24.046Z,29.82
2024-05-09T11:09:23.165Z,29.59
2024-05-09T11:10:27.925Z,29.40
2024-05-09T11:11:25.170Z,29.24
2024-05-09T11:12:24.772Z,29.11
2024-05-09T11:13:23.816Z,29.00
2024-05-09T11:14:23.975Z,28.94
2024-05-09T11:15:23.878Z,28.85
2024-05-09T11:16:23.855Z,28.84
2024-05-09T11:17:24.063Z,28.82
2024-05-09T11:18:25.438Z,28.81
2024-05-09T11:19:23.993Z,28.75
2024-05-09T11:20:29.512Z,28.66
2024-05-09T11:21:25.413Z,28.52
2024-05-09T11:22:23.766Z,28.39
2024-05-09T11:23:23.874Z,28.34
2024-05-09T11:24:23.778Z,28.27
2024-05-09T11:25:23.709Z,28.13
2024-05-09T11:26:23.841Z,27.95
2024-05-09T11:27:23.747Z,27.86
2024-05-09T11:28:23.733Z,27.81
2024-05-09T11:29:22.900Z,27.78
2024-05-09T11:30:29.818Z,27.76
2024-05-09T11:31:25.561Z,27.75
2024-05-09T11:32:23.820Z,27.76
2024-05-09T11:33:23.705Z,27.78
2024-05-09T11:34:23.647Z,27.82
2024-05-09T11:35:22.858Z,27.84
2024-05-09T11:36:23.653Z,27.87
2024-05-09T11:37:23.591Z,27.92
2024-05-09T11:38:23.721Z,27.98
2024-05-09T11:39:23.623Z,28.04
2024-05-09T11:40:25.927Z,28.07
2024-05-09T11:41:25.727Z,28.12
2024-05-09T11:42:23.588Z,28.17
2024-05-09T11:43:23.591Z,28.22
2024-05-09T11:44:23.654Z,28.27
2024-05-09T11:45:23.560Z,28.33
2024-05-09T11:46:23.516Z,28.34
2024-05-09T11:47:23.672Z,28.34
2024-05-09T11:48:22.881Z,28.35
2024-05-09T11:49:26.787Z,28.43
2024-05-09T11:50:29.921Z,28.49
2024-05-09T11:51:24.508Z,28.59
2024-05-09T11:52:23.458Z,28.60
2024-05-09T11:53:22.684Z,28.53
2024-05-09T11:54:23.456Z,28.40
2024-05-09T11:55:26.810Z,28.28
2024-05-09T11:56:24.018Z,28.24
2024-05-09T11:57:23.426Z,28.15
2024-05-09T11:58:23.056Z,28.04
2024-05-09T11:59:23.491Z,27.90
2024-05-09T12:01:25.301Z,27.78
2024-05-09T12:02:23.497Z,27.79
2024-05-09T12:03:23.393Z,27.72
2024-05-09T12:04:23.492Z,27.61
2024-05-09T12:05:23.526Z,27.54
2024-05-09T12:06:23.338Z,27.47
2024-05-09T12:07:23.343Z,27.45
2024-05-09T12:08:22.478Z,27.47
2024-05-09T12:09:23.297Z,27.41
2024-05-09T12:10:32.056Z,27.38
2024-05-09T12:11:24.449Z,27.36
2024-05-09T12:12:23.266Z,27.33
2024-05-09T12:13:23.348Z,27.31
2024-05-09T12:14:23.340Z,27.26
2024-05-09T12:15:23.232Z,27.24
2024-05-09T12:16:22.565Z,27.21
2024-05-09T12:17:23.389Z,27.18
2024-05-09T12:18:23.256Z,27.16
2024-05-09T12:19:23.316Z,27.13
2024-05-09T12:20:28.886Z,27.07
2024-05-09T12:21:25.779Z,27.00
2024-05-09T12:22:23.082Z,26.95
2024-05-09T12:23:23.235Z,26.88
2024-05-09T12:24:23.135Z,26.83
2024-05-09T12:25:23.125Z,26.80
2024-05-09T12:26:23.218Z,26.84
2024-05-09T12:27:23.122Z,26.85
2024-05-09T12:28:23.267Z,26.88
2024-05-09T12:29:23.171Z,26.91
2024-05-09T12:30:32.774Z,26.88
2024-05-09T12:31:24.240Z,26.82
2024-05-09T12:32:23.274Z,26.71
2024-05-09T12:33:23.140Z,26.67
2024-05-09T12:34:22.986Z,26.67
2024-05-09T12:35:23.130Z,26.65
2024-05-09T12:36:23.009Z,26.67
2024-05-09T12:37:22.953Z,26.68
2024-05-09T12:38:22.866Z,26.73
2024-05-09T12:39:22.993Z,26.81
2024-05-09T12:40:31.495Z,26.88
2024-05-09T12:41:23.123Z,26.95
2024-05-09T12:42:27.394Z,27.03
2024-05-09T12:43:25.213Z,27.09
2024-05-09T12:44:23.014Z,27.12
2024-05-09T12:45:22.916Z,27.07
2024-05-09T12:46:22.893Z,27.04
2024-05-09T12:47:24.097Z,27.05
2024-05-09T12:48:22.985Z,27.06
2024-05-09T12:49:22.896Z,27.09
2024-05-09T12:50:29.904Z,27.10
2024-05-09T12:51:24.967Z,27.06
2024-05-09T12:52:22.825Z,26.98
2024-05-09T12:53:22.721Z,26.91
2024-05-09T12:54:22.821Z,26.86
2024-05-09T12:55:22.765Z,26.84
2024-05-09T12:56:22.884Z,26.86
2024-05-09T12:57:22.787Z,26.84
2024-05-09T12:58:23.044Z,26.80